Time;durP1;ratioP1;P1;durP2;ratioP2;P2;SDS_P1;SDS_P2;PMS_P1;PMS_P2;Temp;Humidity;BMP_temperature;BMP_pressure;BME280_temperature;BME280_humidity;BME280_pressure;Samples;Min_cycle;Max_cycle;Signal;HPM_P1;HPM_P2
2021/04/23 04:01:23;;;;;;;5.30;4.63;;;5.30;99.90;;;;;;5528781;23;20579;-67
2021/04/23 04:03:51;;;;;;;7.27;4.67;;;5.30;99.90;;;;;;4982569;28;20451;-66
2021/04/23 04:06:17;;;;;;;10.07;4.63;;;5.30;99.90;;;;;;4983801;28;20483;-66
2021/04/23 04:08:43;;;;;;;9.27;4.73;;;5.30;99.90;;;;;;4979802;28;20465;-67
2021/04/23 04:11:10;;;;;;;6.33;4.07;;;5.20;99.90;;;;;;4975780;28;20977;-66
2021/04/23 04:13:37;;;;;;;9.83;4.67;;;5.20;99.90;;;;;;4975975;28;20828;-67
2021/04/23 04:16:04;;;;;;;10.20;5.87;;;5.20;99.90;;;;;;4976114;28;20454;-67
2021/04/23 04:18:32;;;;;;;5.43;4.20;;;5.20;99.90;;;;;;4975948;28;20455;-67
2021/04/23 04:20:58;;;;;;;8.13;4.63;;;5.20;99.90;;;;;;4975887;28;21011;-67
2021/04/23 04:23:25;;;;;;;5.30;4.80;;;5.20;99.90;;;;;;4976658;28;20462;-66
2021/04/23 04:25:55;;;;;;;8.70;5.30;;;5.20;99.90;;;;;;4976750;28;20835;-67
2021/04/23 04:28:22;;;;;;;6.83;4.50;;;5.20;99.90;;;;;;4976137;28;20455;-66
2021/04/23 04:30:48;;;;;;;8.03;4.90;;;5.30;99.90;;;;;;4976270;28;20481;-67
2021/04/23 04:33:15;;;;;;;8.80;4.60;;;5.30;99.90;;;;;;4975390;28;20956;-68
2021/04/23 04:35:43;;;;;;;7.90;5.10;;;5.30;99.90;;;;;;4975562;28;20510;-66
2021/04/23 04:38:12;;;;;;;7.80;5.17;;;5.40;99.90;;;;;;4975259;28;20455;-66
2021/04/23 04:40:39;;;;;;;4.93;4.53;;;5.30;99.90;;;;;;4975564;28;20474;-66
2021/04/23 04:43:07;;;;;;;7.90;5.10;;;5.20;99.90;;;;;;4975518;28;20458;-66
2021/04/23 04:45:34;;;;;;;7.30;4.10;;;5.30;99.90;;;;;;4975587;28;20512;-67
2021/04/23 04:48:01;;;;;;;6.27;4.80;;;5.20;99.90;;;;;;4976192;28;20458;-67
2021/04/23 04:50:29;;;;;;;6.83;4.30;;;5.10;99.90;;;;;;4975351;28;20451;-68
2021/04/23 04:52:58;;;;;;;6.93;4.43;;;5.00;99.90;;;;;;4975436;28;20533;-67
2021/04/23 04:55:27;;;;;;;7.90;4.50;;;5.00;99.90;;;;;;4975103;28;20455;-67
2021/04/23 04:57:53;;;;;;;6.93;5.00;;;5.00;99.90;;;;;;4975240;28;20458;-68
2021/04/23 05:00:21;;;;;;;8.50;4.83;;;5.10;99.90;;;;;;4974997;28;20466;-68
2021/04/23 05:02:48;;;;;;;6.83;4.30;;;5.20;99.90;;;;;;4975298;28;20451;-67
2021/04/23 05:05:15;;;;;;;7.00;4.77;;;5.20;99.90;;;;;;4975404;28;20869;-66
2021/04/23 05:07:42;;;;;;;10.07;4.87;;;5.30;99.90;;;;;;4980423;28;20478;-66
2021/04/23 05:10:10;;;;;;;10.10;4.63;;;5.40;99.90;;;;;;4975265;28;20461;-67
2021/04/23 05:12:36;;;;;;;7.93;4.70;;;5.40;99.90;;;;;;4975227;28;20798;-66
2021/04/23 05:15:03;;;;;;;7.77;5.17;;;5.50;99.90;;;;;;4974990;28;20806;-66
2021/04/23 05:17:29;;;;;;;6.80;4.80;;;5.60;99.90;;;;;;4975150;28;20509;-68
2021/04/23 05:19:56;;;;;;;7.73;4.37;;;5.70;99.90;;;;;;4975157;28;20457;-68
2021/04/23 05:22:22;;;;;;;5.87;4.47;;;5.80;99.90;;;;;;4974460;28;20481;-66
2021/04/23 05:24:48;;;;;;;6.90;4.40;;;5.90;99.90;;;;;;4974498;28;20455;-66
2021/04/23 05:27:15;;;;;;;6.90;4.50;;;6.00;99.90;;;;;;4974451;28;20478;-65
2021/04/23 05:29:41;;;;;;;7.90;4.20;;;6.20;99.90;;;;;;4974570;28;20459;-66
2021/04/23 05:32:08;;;;;;;6.07;4.30;;;6.40;99.90;;;;;;4974450;28;20529;-65
2021/04/23 05:34:34;;;;;;;11.03;3.90;;;6.70;99.90;;;;;;4974978;28;20454;-65
2021/04/23 05:37:00;;;;;;;6.47;4.37;;;6.90;99.90;;;;;;4974950;28;20478;-66
2021/04/23 05:39:26;;;;;;;10.00;4.10;;;7.20;99.90;;;;;;4974623;28;20458;-66
2021/04/23 05:41:53;;;;;;;6.77;4.90;;;7.40;99.90;;;;;;4974281;28;20479;-66
2021/04/23 05:44:20;;;;;;;8.07;4.20;;;7.50;99.90;;;;;;4974505;28;20447;-67
2021/04/23 05:46:46;;;;;;;6.07;4.70;;;7.70;99.90;;;;;;4975220;28;20479;-67
2021/04/23 05:49:13;;;;;;;15.43;4.60;;;8.30;99.90;;;;;;4976766;28;20458;-67
2021/04/23 05:51:39;;;;;;;6.93;5.30;;;8.90;98.90;;;;;;4977795;28;20478;-67
2021/04/23 05:54:05;;;;;;;7.70;4.70;;;9.40;98.90;;;;;;4978102;28;20451;-66
2021/04/23 05:56:31;;;;;;;9.17;5.17;;;9.90;97.70;;;;;;4978083;28;20455;-66
2021/04/23 05:58:58;;;;;;;15.00;5.70;;;10.50;95.50;;;;;;4978155;28;20463;-66
2021/04/23 06:01:25;;;;;;;9.03;6.13;;;11.00;93.80;;;;;;4977699;28;20486;-67
2021/04/23 06:03:51;;;;;;;7.60;5.10;;;11.20;91.80;;;;;;4978021;28;20458;-66
2021/04/23 06:06:17;;;;;;;8.63;4.80;;;11.60;91.60;;;;;;4977584;28;20470;-66
2021/04/23 06:08:44;;;;;;;8.60;4.70;;;11.90;89.10;;;;;;4984084;28;20451;-66
2021/04/23 06:11:15;;;;;;;11.97;6.17;;;11.80;87.00;;;;;;4989305;28;20498;-66
2021/04/23 06:13:42;;;;;;;8.83;4.40;;;11.80;86.80;;;;;;4988192;28;20443;-68
2021/04/23 06:16:08;;;;;;;7.60;4.70;;;12.00;87.10;;;;;;4989562;28;20450;-65
2021/04/23 06:18:35;;;;;;;9.53;4.67;;;11.90;83.90;;;;;;4978518;28;20455;-68
2021/04/23 06:21:02;;;;;;;11.97;4.73;;;12.00;82.70;;;;;;4979143;28;20486;-67
2021/04/23 06:23:28;;;;;;;5.37;4.97;;;12.10;84.30;;;;;;4978192;28;20454;-67
2021/04/23 06:25:54;;;;;;;9.50;5.17;;;12.30;84.90;;;;;;4977721;28;20478;-67
2021/04/23 06:28:20;;;;;;;6.13;5.07;;;12.80;83.30;;;;;;4977401;28;20461;-67
2021/04/23 06:30:47;;;;;;;14.87;6.23;;;12.90;81.80;;;;;;4977556;28;20481;-67
2021/04/23 06:33:16;;;;;;;10.47;5.23;;;12.90;79.80;;;;;;4977496;28;20668;-67
2021/04/23 06:35:43;;;;;;;11.37;5.67;;;13.20;80.80;;;;;;4977729;28;20586;-68
2021/04/23 06:38:09;;;;;;;8.90;5.50;;;13.50;79.00;;;;;;4985918;28;20454;-67
2021/04/23 06:40:36;;;;;;;6.10;4.70;;;14.20;78.90;;;;;;4979676;28;20481;-67
2021/04/23 06:43:02;;;;;;;7.53;4.83;;;14.90;73.60;;;;;;4977823;28;20459;-68
2021/04/23 06:45:29;;;;;;;11.73;5.10;;;15.50;72.00;;;;;;4977359;28;20458;-68
2021/04/23 06:47:55;;;;;;;7.90;4.90;;;16.20;69.50;;;;;;4977086;28;20537;-68
2021/04/23 06:50:23;;;;;;;8.60;5.67;;;16.60;68.10;;;;;;4977099;28;20566;-67
2021/04/23 06:52:53;;;;;;;6.53;5.60;;;17.10;65.20;;;;;;4977208;28;20461;-67
2021/04/23 06:55:20;;;;;;;8.33;5.30;;;17.20;64.00;;;;;;4977160;28;20461;-67
2021/04/23 06:57:47;;;;;;;8.30;5.33;;;17.30;63.00;;;;;;4977594;28;20455;-66
2021/04/23 07:00:16;;;;;;;9.63;5.40;;;16.90;62.20;;;;;;4976773;28;20459;-67
2021/04/23 07:02:42;;;;;;;8.90;4.80;;;17.30;61.10;;;;;;4978069;28;20513;-67
2021/04/23 07:05:11;;;;;;;9.10;5.00;;;17.00;59.20;;;;;;4977494;28;20459;-67
2021/04/23 07:07:37;;;;;;;6.43;4.43;;;17.40;59.40;;;;;;4976727;28;20490;-67
2021/04/23 07:10:06;;;;;;;8.23;4.97;;;17.90;57.90;;;;;;4976573;28;20463;-68
2021/04/23 07:12:32;;;;;;;8.00;4.57;;;18.50;57.60;;;;;;4976616;28;20475;-67
2021/04/23 07:14:58;;;;;;;6.53;4.70;;;18.80;54.90;;;;;;4976369;28;20458;-67
2021/04/23 07:17:24;;;;;;;8.07;4.80;;;16.60;56.30;;;;;;4976635;28;20455;-68
2021/04/23 07:19:51;;;;;;;9.60;5.20;;;17.40;56.90;;;;;;4976237;28;20459;-68
2021/04/23 07:22:17;;;;;;;6.10;4.63;;;17.80;55.70;;;;;;4976571;28;20529;-67
2021/04/23 07:24:44;;;;;;;10.03;5.20;;;16.90;58.20;;;;;;4976408;28;20458;-67
2021/04/23 07:27:12;;;;;;;12.60;5.70;;;17.20;57.80;;;;;;4976212;28;20996;-67
2021/04/23 07:29:38;;;;;;;12.90;4.90;;;17.80;57.10;;;;;;4976592;28;20525;-68
2021/04/23 07:32:05;;;;;;;6.80;4.90;;;18.20;56.80;;;;;;4976017;28;20471;-68
2021/04/23 07:34:32;;;;;;;6.10;4.37;;;19.10;55.90;;;;;;4976271;28;20462;-68
2021/04/23 07:36:58;;;;;;;8.30;4.57;;;19.40;55.00;;;;;;4976299;28;20455;-68
2021/04/23 07:39:26;;;;;;;8.33;4.90;;;20.20;53.10;;;;;;4977079;28;20877;-68
2021/04/23 07:41:53;;;;;;;9.00;4.73;;;20.40;52.60;;;;;;4976821;28;20475;-69
2021/04/23 07:44:21;;;;;;;11.57;5.13;;;20.00;52.40;;;;;;4977926;28;20460;-68
2021/04/23 07:46:47;;;;;;;9.50;5.23;;;20.20;51.20;;;;;;4976565;28;20521;-68
2021/04/23 07:49:14;;;;;;;8.00;5.10;;;20.50;50.10;;;;;;4976226;28;20949;-67
2021/04/23 07:51:40;;;;;;;10.73;5.27;;;19.70;52.00;;;;;;4976129;28;20815;-69
2021/04/23 07:54:07;;;;;;;8.20;5.27;;;19.70;52.00;;;;;;4976332;28;20451;-68
2021/04/23 07:56:33;;;;;;;14.10;5.03;;;19.70;52.30;;;;;;4975935;28;20921;-68
2021/04/23 07:59:00;;;;;;;8.47;4.87;;;20.00;50.30;;;;;;4975928;28;21039;-69
2021/04/23 08:01:27;;;;;;;8.20;4.83;;;20.80;50.30;;;;;;4975762;28;20505;-69
2021/04/23 08:03:53;;;;;;;9.47;4.90;;;20.70;49.70;;;;;;4975950;28;20459;-69
2021/04/23 08:06:19;;;;;;;7.37;5.03;;;21.50;49.30;;;;;;4976185;28;20522;-69
2021/04/23 08:08:46;;;;;;;11.73;5.77;;;21.60;48.00;;;;;;4976971;28;20451;-69
2021/04/23 08:11:12;;;;;;;7.60;4.30;;;21.50;48.70;;;;;;4976054;28;20482;-69
2021/04/23 08:13:38;;;;;;;9.93;5.20;;;21.50;49.50;;;;;;4976186;28;20450;-68
2021/04/23 08:16:05;;;;;;;10.80;5.10;;;21.80;50.80;;;;;;4976218;28;20451;-69
2021/04/23 08:18:35;;;;;;;8.50;4.83;;;22.70;47.10;;;;;;4977297;28;20462;-69
2021/04/23 08:21:01;;;;;;;8.13;5.10;;;23.10;49.60;;;;;;4977518;28;20475;-69
2021/04/23 08:23:27;;;;;;;12.73;5.83;;;22.60;45.20;;;;;;4975536;28;20454;-69
2021/04/23 08:25:56;;;;;;;9.23;5.00;;;22.70;45.10;;;;;;4974936;28;20968;-69
2021/04/23 08:28:23;;;;;;;9.27;5.37;;;22.80;49.70;;;;;;4975567;28;20454;-70
2021/04/23 08:30:50;;;;;;;10.73;5.63;;;23.00;45.70;;;;;;4975438;28;20832;-69
2021/04/23 08:33:16;;;;;;;9.57;6.33;;;23.00;46.20;;;;;;4975364;28;20560;-69
2021/04/23 08:35:43;;;;;;;8.13;5.57;;;23.50;46.40;;;;;;4975330;28;20462;-69
2021/04/23 08:38:10;;;;;;;10.03;5.30;;;23.90;45.10;;;;;;4974998;28;20451;-68
2021/04/23 08:40:36;;;;;;;8.37;5.80;;;24.40;46.30;;;;;;4975575;28;20972;-68
2021/04/23 08:43:02;;;;;;;6.67;5.90;;;23.70;44.80;;;;;;4975081;28;20454;-68
2021/04/23 08:45:29;;;;;;;11.40;6.33;;;24.00;46.30;;;;;;4974846;28;20862;-69
2021/04/23 08:47:56;;;;;;;12.03;5.70;;;23.90;45.00;;;;;;4975205;28;20483;-69
2021/04/23 08:50:25;;;;;;;10.83;5.80;;;23.70;46.10;;;;;;4975020;28;20459;-68
2021/04/23 08:52:53;;;;;;;9.10;6.50;;;23.80;44.90;;;;;;4975042;28;20462;-68
2021/04/23 08:55:22;;;;;;;11.47;7.07;;;23.60;44.90;;;;;;4975062;28;20462;-68
2021/04/23 08:57:48;;;;;;;10.27;6.97;;;23.40;43.00;;;;;;4975054;28;20455;-67
2021/04/23 09:00:16;;;;;;;10.90;6.53;;;23.40;44.80;;;;;;4974883;28;20454;-67
2021/04/23 09:02:44;;;;;;;10.47;6.90;;;23.10;44.50;;;;;;4975210;28;20459;-68
2021/04/23 09:05:12;;;;;;;11.93;6.47;;;22.50;42.30;;;;;;4975139;28;20493;-68
2021/04/23 09:07:38;;;;;;;7.77;6.77;;;21.20;44.60;;;;;;4974836;28;20485;-68
2021/04/23 09:10:08;;;;;;;10.93;6.70;;;21.90;46.20;;;;;;4975035;28;20481;-69
2021/04/23 09:12:34;;;;;;;19.23;6.50;;;22.60;45.60;;;;;;4975968;28;20482;-68
2021/04/23 09:15:02;;;;;;;9.70;6.67;;;22.10;45.00;;;;;;4974895;28;20458;-68
2021/04/23 09:17:29;;;;;;;11.10;7.40;;;22.40;46.10;;;;;;4975083;28;20501;-69
2021/04/23 09:19:56;;;;;;;15.30;6.83;;;21.90;47.10;;;;;;4974908;28;20462;-67
2021/04/23 09:22:25;;;;;;;8.77;6.60;;;21.90;45.50;;;;;;4976009;28;20479;-68
2021/04/23 09:24:59;;;;;;;10.60;6.40;;;22.40;46.40;;;;;;4978681;28;20454;-68
2021/04/23 09:27:29;;;;;;;9.23;7.30;;;22.30;45.00;;;;;;4978276;28;21003;-67
2021/04/23 09:29:57;;;;;;;11.13;6.97;;;23.00;47.00;;;;;;4978635;28;20439;-67
2021/04/23 09:32:26;;;;;;;13.57;7.53;;;23.40;45.60;;;;;;4978530;28;20529;-68
2021/04/23 09:34:55;;;;;;;10.60;6.97;;;23.80;46.00;;;;;;4979002;28;20458;-68
2021/04/23 09:37:23;;;;;;;10.43;7.13;;;23.50;44.40;;;;;;4979210;28;20459;-68
2021/04/23 09:39:52;;;;;;;21.23;7.27;;;23.00;44.20;;;;;;4980060;28;20454;-67
2021/04/23 09:42:19;;;;;;;9.07;6.70;;;22.60;45.50;;;;;;4980634;28;20506;-68
2021/04/23 09:44:48;;;;;;;12.37;7.03;;;21.60;45.80;;;;;;4978844;28;20454;-68
2021/04/23 09:47:18;;;;;;;12.30;7.93;;;22.80;47.60;;;;;;4978434;28;20505;-68
2021/04/23 09:49:45;;;;;;;15.43;7.77;;;23.10;45.70;;;;;;4978441;28;20484;-68
2021/04/23 09:52:14;;;;;;;12.07;7.50;;;22.50;45.30;;;;;;4978277;28;20520;-68
2021/04/23 09:54:45;;;;;;;9.73;6.93;;;22.60;44.10;;;;;;4978378;28;20514;-68
2021/04/23 09:57:13;;;;;;;11.93;8.17;;;22.90;46.40;;;;;;4978859;28;20795;-68
2021/04/23 09:59:52;;;;;;;11.33;6.13;;;24.00;47.70;;;;;;4978653;28;20465;-69
2021/04/23 10:02:20;;;;;;;8.00;6.90;;;24.40;44.40;;;;;;4978346;28;20993;-68
2021/04/23 10:04:46;;;;;;;10.83;7.40;;;24.00;45.20;;;;;;4978402;28;20508;-69
2021/04/23 10:07:15;;;;;;;13.03;7.03;;;25.00;45.20;;;;;;4978571;28;20485;-67
2021/04/23 10:09:54;;;;;;;8.53;6.40;;;25.60;44.60;;;;;;4978337;28;20461;-67
2021/04/23 10:12:35;;;;;;;13.70;6.97;;;25.50;41.90;;;;;;4978159;28;20626;-68
2021/04/23 10:15:06;;;;;;;9.37;7.30;;;25.70;43.30;;;;;;4978086;28;20443;-68
2021/04/23 10:17:32;;;;;;;14.00;7.47;;;25.10;41.70;;;;;;4978332;28;20439;-68
2021/04/23 10:19:59;;;;;;;13.80;8.30;;;24.20;42.90;;;;;;4978546;28;20454;-67
2021/04/23 10:22:26;;;;;;;11.33;6.40;;;23.80;42.10;;;;;;4977697;28;20482;-68
2021/04/23 10:24:53;;;;;;;11.63;7.20;;;22.80;43.80;;;;;;4978163;28;20438;-68
2021/04/23 10:27:20;;;;;;;10.33;7.07;;;21.90;47.20;;;;;;4978153;28;20538;-68
2021/04/23 10:29:48;;;;;;;8.57;7.63;;;22.10;47.80;;;;;;4978138;28;20846;-68
2021/04/23 10:32:15;;;;;;;9.07;7.03;;;22.70;46.00;;;;;;4977754;28;20485;-68
2021/04/23 10:34:42;;;;;;;8.50;6.43;;;23.30;46.30;;;;;;4977221;28;20461;-69
2021/04/23 10:37:10;;;;;;;6.30;5.33;;;23.50;44.80;;;;;;4977778;28;20474;-68
2021/04/23 10:39:38;;;;;;;7.00;5.10;;;24.10;44.10;;;;;;4977846;28;20509;-67
2021/04/23 10:42:05;;;;;;;8.80;5.63;;;24.20;40.00;;;;;;4977753;28;20515;-68
2021/04/23 10:44:51;;;;;;;11.50;5.57;;;24.70;42.60;;;;;;4977729;28;20801;-68
2021/04/23 10:47:30;;;;;;;10.43;5.80;;;25.60;41.60;;;;;;4978080;28;20506;-68
2021/04/23 10:50:08;;;;;;;6.10;5.47;;;25.90;40.10;;;;;;4977561;28;20910;-68
2021/04/23 10:52:35;;;;;;;7.80;6.10;;;26.10;39.70;;;;;;4977221;28;20482;-69
2021/04/23 10:55:07;;;;;;;7.53;6.30;;;26.40;41.50;;;;;;4976651;28;20910;-69
2021/04/23 10:57:52;;;;;;;9.10;6.50;;;26.70;40.60;;;;;;4977092;28;20530;-69
2021/04/23 11:00:33;;;;;;;9.17;7.30;;;26.30;38.80;;;;;;4976892;28;20511;-68
2021/04/23 11:03:32;;;;;;;11.07;6.27;;;25.90;41.80;;;;;;4977144;28;20819;-69
2021/04/23 11:06:01;;;;;;;12.00;6.83;;;26.00;36.70;;;;;;4976999;28;20498;-69
2021/04/23 11:08:29;;;;;;;9.83;6.13;;;25.70;40.30;;;;;;4976326;28;20972;-68
2021/04/23 11:11:12;;;;;;;9.60;6.30;;;25.90;42.20;;;;;;4977109;28;20504;-68
2021/04/23 11:13:39;;;;;;;9.83;6.90;;;25.40;38.30;;;;;;4978047;28;20446;-68
2021/04/23 11:16:31;;;;;;;12.07;7.83;;;24.80;39.70;;;;;;4976070;28;20769;-68
2021/04/23 11:19:20;;;;;;;9.90;6.50;;;24.30;40.20;;;;;;4976388;28;20490;-69
2021/04/23 11:21:48;;;;;;;8.60;6.60;;;23.90;40.30;;;;;;4976499;28;20533;-68
2021/04/23 11:24:16;;;;;;;16.27;6.87;;;23.50;42.50;;;;;;4976507;28;20458;-68
2021/04/23 11:27:06;;;;;;;8.07;5.57;;;22.90;43.80;;;;;;4976593;28;20482;-68
2021/04/23 11:29:35;;;;;;;6.97;5.90;;;22.70;41.70;;;;;;4976450;28;20445;-67
2021/04/23 11:32:15;;;;;;;10.53;6.77;;;22.20;41.70;;;;;;4976240;28;20549;-67
2021/04/23 11:34:44;;;;;;;11.00;5.53;;;21.30;47.20;;;;;;4976605;28;20845;-68
2021/04/23 11:37:13;;;;;;;7.73;6.03;;;21.50;43.40;;;;;;4976784;28;20459;-68
2021/04/23 11:39:43;;;;;;;13.80;6.43;;;21.40;42.40;;;;;;4976240;28;20458;-68
2021/04/23 11:42:25;;;;;;;9.00;5.70;;;21.60;42.10;;;;;;4976259;28;20479;-69
2021/04/23 11:44:55;;;;;;;8.70;6.10;;;21.20;40.90;;;;;;4974700;28;20458;-69
2021/04/23 11:47:32;;;;;;;11.27;6.30;;;21.60;40.00;;;;;;4976309;28;20950;-68
2021/04/23 11:50:09;;;;;;;7.13;5.70;;;21.30;41.90;;;;;;4976365;28;20822;-68
2021/04/23 11:52:35;;;;;;;7.17;6.37;;;21.30;43.80;;;;;;4976042;28;20478;-68
2021/04/23 11:55:06;;;;;;;9.63;6.70;;;21.20;44.50;;;;;;4975963;28;20465;-68
2021/04/23 11:57:32;;;;;;;9.17;6.40;;;21.20;44.90;;;;;;4976639;28;20800;-69
2021/04/23 12:00:05;;;;;;;10.80;7.30;;;21.30;43.90;;;;;;4976219;28;20455;-68
2021/04/23 12:02:51;;;;;;;10.17;7.10;;;21.20;46.20;;;;;;4976004;28;20486;-68
2021/04/23 12:05:37;;;;;;;8.13;6.17;;;20.80;44.30;;;;;;4975592;28;20956;-68
2021/04/23 12:08:06;;;;;;;10.43;6.70;;;21.30;44.30;;;;;;4976504;28;21056;-68
2021/04/23 12:10:34;;;;;;;9.83;6.97;;;21.50;43.60;;;;;;4976718;28;20454;-69
2021/04/23 12:13:01;;;;;;;10.40;6.83;;;21.60;46.60;;;;;;4976061;28;20455;-68
2021/04/23 12:15:30;;;;;;;11.50;7.40;;;21.50;47.00;;;;;;4975450;28;20890;-68
2021/04/23 12:17:57;;;;;;;13.30;6.97;;;21.00;43.90;;;;;;4975795;28;20462;-68
2021/04/23 12:20:26;;;;;;;8.57;6.70;;;21.00;45.60;;;;;;4975945;28;20485;-68
2021/04/23 12:22:53;;;;;;;7.20;6.03;;;20.80;45.90;;;;;;4976069;28;20450;-68
2021/04/23 12:25:33;;;;;;;8.43;6.00;;;21.00;48.00;;;;;;4976307;28;20550;-68
2021/04/23 12:28:20;;;;;;;8.33;5.80;;;20.70;42.40;;;;;;4975759;28;20474;-68
2021/04/23 12:30:46;;;;;;;12.10;6.63;;;21.00;43.00;;;;;;4975754;28;20479;-68
2021/04/23 12:33:13;;;;;;;12.07;6.97;;;20.80;42.70;;;;;;4975673;28;20465;-68
2021/04/23 12:35:41;;;;;;;9.27;6.20;;;20.70;45.60;;;;;;4975278;28;20466;-68
2021/04/23 12:38:11;;;;;;;9.90;6.20;;;20.70;43.80;;;;;;4976292;28;20455;-68
2021/04/23 12:40:40;;;;;;;6.50;5.80;;;20.70;41.80;;;;;;4978194;28;20475;-69
2021/04/23 12:43:18;;;;;;;7.17;6.10;;;20.20;43.00;;;;;;4977268;28;20542;-67
2021/04/23 12:45:49;;;;;;;11.30;6.00;;;20.60;45.70;;;;;;4977276;28;20443;-69
2021/04/23 12:48:16;;;;;;;11.70;6.17;;;21.10;45.70;;;;;;4975173;28;20490;-68
2021/04/23 12:50:45;;;;;;;7.50;6.70;;;20.70;46.70;;;;;;4975599;28;20607;-69
2021/04/23 12:53:12;;;;;;;10.60;6.10;;;20.80;42.00;;;;;;4975393;28;20458;-68
2021/04/23 12:55:40;;;;;;;10.33;6.47;;;21.10;44.70;;;;;;4975251;28;20454;-68
2021/04/23 12:58:07;;;;;;;15.13;6.47;;;21.20;42.00;;;;;;4974951;28;20822;-68
2021/04/23 13:00:35;;;;;;;7.73;6.33;;;21.10;42.70;;;;;;4975398;28;20546;-69
2021/04/23 13:03:01;;;;;;;8.43;6.93;;;20.60;43.00;;;;;;4975544;28;20439;-69
2021/04/23 13:05:28;;;;;;;12.53;6.50;;;20.70;40.50;;;;;;4975432;28;20489;-68
2021/04/23 13:07:56;;;;;;;11.33;6.13;;;20.80;41.70;;;;;;4974881;28;21060;-68
2021/04/23 13:10:25;;;;;;;6.53;5.77;;;20.60;40.60;;;;;;4975059;28;20462;-68
2021/04/23 13:13:04;;;;;;;9.33;6.50;;;20.70;44.90;;;;;;4975089;28;20830;-69
2021/04/23 13:15:33;;;;;;;12.10;6.60;;;20.60;41.40;;;;;;4975230;28;20454;-68
2021/04/23 13:18:02;;;;;;;9.40;6.93;;;20.60;44.70;;;;;;4975233;28;20465;-68
2021/04/23 13:20:31;;;;;;;10.17;6.57;;;20.70;44.00;;;;;;4974789;28;20465;-68
2021/04/23 13:23:00;;;;;;;7.60;5.60;;;20.60;43.90;;;;;;4975165;28;20455;-68
2021/04/23 13:25:33;;;;;;;7.73;6.67;;;20.70;45.40;;;;;;4975115;28;20455;-68
2021/04/23 13:28:15;;;;;;;9.43;6.60;;;20.70;43.60;;;;;;4975004;28;20500;-68
2021/04/23 13:30:50;;;;;;;9.43;6.57;;;20.70;44.90;;;;;;4974977;28;20481;-68
2021/04/23 13:33:32;;;;;;;6.93;6.10;;;20.50;43.60;;;;;;4974831;28;20439;-68
2021/04/23 13:36:11;;;;;;;9.77;6.77;;;20.40;43.70;;;;;;4974709;28;20439;-68
2021/04/23 13:38:44;;;;;;;9.80;7.10;;;20.50;44.20;;;;;;4974848;28;20443;-67
2021/04/23 13:41:21;;;;;;;8.40;6.33;;;20.30;42.70;;;;;;4974814;28;20474;-68
2021/04/23 13:43:51;;;;;;;7.23;5.90;;;20.40;44.70;;;;;;4975173;28;20439;-69
2021/04/23 13:46:19;;;;;;;12.13;5.70;;;20.20;41.90;;;;;;4975011;28;20443;-68
2021/04/23 13:48:51;;;;;;;9.33;5.93;;;20.10;42.90;;;;;;4974803;28;20455;-68
2021/04/23 13:51:23;;;;;;;9.80;6.23;;;20.20;41.40;;;;;;4974560;28;20475;-69
2021/04/23 13:53:50;;;;;;;8.73;5.90;;;20.10;44.10;;;;;;4974549;28;20454;-69
2021/04/23 13:56:20;;;;;;;9.57;6.00;;;20.50;40.60;;;;;;4974738;28;20454;-69
2021/04/23 13:58:54;;;;;;;9.67;5.93;;;20.30;45.40;;;;;;4974411;28;20961;-69
2021/04/23 14:01:32;;;;;;;5.83;5.23;;;20.40;41.60;;;;;;4974233;28;20597;-68
2021/04/23 14:04:00;;;;;;;7.27;5.90;;;20.50;43.90;;;;;;4974727;28;20509;-68
2021/04/23 14:06:26;;;;;;;10.63;6.70;;;20.50;44.10;;;;;;4974527;28;20461;-68
2021/04/23 14:08:52;;;;;;;6.67;6.07;;;20.60;43.70;;;;;;4975223;28;20483;-67
2021/04/23 14:11:20;;;;;;;9.23;6.60;;;20.60;43.90;;;;;;4978628;28;20478;-68
2021/04/23 14:13:54;;;;;;;8.77;6.40;;;20.70;44.40;;;;;;4978174;28;20465;-69
2021/04/23 14:16:22;;;;;;;6.93;6.33;;;20.60;44.20;;;;;;4978226;28;20492;-68
2021/04/23 14:18:48;;;;;;;8.17;5.83;;;20.50;45.90;;;;;;4980053;28;20455;-68
2021/04/23 14:21:14;;;;;;;8.80;5.97;;;20.30;42.70;;;;;;4980683;28;20554;-68
2021/04/23 14:23:41;;;;;;;11.10;6.63;;;20.60;42.30;;;;;;4977948;28;20949;-68
2021/04/23 14:26:07;;;;;;;8.03;5.60;;;20.80;43.30;;;;;;4978069;28;20458;-68
2021/04/23 14:28:34;;;;;;;10.30;6.70;;;20.90;42.40;;;;;;4978133;28;21027;-67
2021/04/23 14:31:00;;;;;;;6.87;6.20;;;20.60;42.40;;;;;;4977851;28;20482;-68
2021/04/23 14:33:26;;;;;;;9.33;6.77;;;20.60;43.20;;;;;;4977538;28;20463;-67
2021/04/23 14:35:53;;;;;;;5.90;5.40;;;20.70;42.00;;;;;;4977514;28;20505;-68
2021/04/23 14:38:19;;;;;;;10.23;6.30;;;20.60;44.00;;;;;;4977548;28;20517;-68
2021/04/23 14:40:46;;;;;;;8.73;6.07;;;20.50;42.60;;;;;;4977685;28;20482;-68
2021/04/23 14:43:12;;;;;;;12.00;6.80;;;20.20;42.10;;;;;;4977584;28;20481;-67
2021/04/23 14:45:39;;;;;;;8.77;5.53;;;20.10;43.20;;;;;;4978150;28;20459;-67
2021/04/23 14:48:06;;;;;;;12.13;6.03;;;20.20;42.80;;;;;;4977581;28;20479;-67
2021/04/23 14:50:34;;;;;;;8.40;5.77;;;20.20;42.60;;;;;;4977266;28;20481;-67
2021/04/23 14:53:00;;;;;;;7.00;5.57;;;20.20;43.10;;;;;;4977668;28;20642;-68
2021/04/23 14:55:27;;;;;;;8.37;6.00;;;20.30;42.90;;;;;;4978386;28;20479;-68
2021/04/23 14:57:54;;;;;;;6.93;5.20;;;20.10;43.90;;;;;;4980221;28;20575;-67
2021/04/23 15:00:23;;;;;;;7.00;6.30;;;20.30;43.80;;;;;;4977956;28;20462;-67
2021/04/23 15:02:50;;;;;;;9.93;6.20;;;20.40;40.70;;;;;;4977590;28;20443;-67
2021/04/23 15:05:17;;;;;;;8.17;6.33;;;20.40;40.10;;;;;;4977233;28;20455;-68
2021/04/23 15:07:43;;;;;;;6.40;5.80;;;20.30;40.30;;;;;;4977079;28;20533;-67
2021/04/23 15:10:11;;;;;;;8.17;6.90;;;19.80;42.40;;;;;;4977235;28;20462;-68
2021/04/23 15:12:38;;;;;;;10.33;5.53;;;19.90;42.20;;;;;;4976502;28;20493;-67
2021/04/23 15:15:05;;;;;;;7.63;5.93;;;20.10;41.80;;;;;;4976688;28;20859;-68
2021/04/23 15:17:31;;;;;;;7.67;5.90;;;20.20;42.90;;;;;;4977020;28;20464;-68
2021/04/23 15:19:58;;;;;;;7.10;6.07;;;20.10;44.20;;;;;;4976935;28;20465;-68
2021/04/23 15:22:24;;;;;;;7.23;5.73;;;19.90;43.10;;;;;;4977095;28;20471;-69
2021/04/23 15:24:51;;;;;;;8.10;5.90;;;20.00;42.00;;;;;;4977288;28;20850;-68
2021/04/23 15:27:17;;;;;;;8.97;6.03;;;20.00;43.00;;;;;;4977125;28;20482;-68
2021/04/23 15:29:43;;;;;;;14.43;7.17;;;20.20;42.70;;;;;;4976726;28;20957;-68
2021/04/23 15:32:09;;;;;;;5.60;5.00;;;20.20;42.30;;;;;;4976701;28;20475;-68
2021/04/23 15:34:35;;;;;;;9.20;6.30;;;20.30;43.50;;;;;;4976695;28;20458;-68
2021/04/23 15:37:02;;;;;;;10.90;6.83;;;20.20;42.80;;;;;;4976648;28;20501;-68
2021/04/23 15:39:29;;;;;;;7.03;5.50;;;20.40;42.50;;;;;;4976389;28;20439;-68
2021/04/23 15:41:56;;;;;;;9.57;5.97;;;20.30;40.90;;;;;;4976525;28;20490;-68
2021/04/23 15:44:22;;;;;;;12.83;5.60;;;20.40;42.50;;;;;;4976741;28;20455;-68
2021/04/23 15:46:48;;;;;;;7.73;5.43;;;20.60;43.40;;;;;;4976151;28;20478;-68
2021/04/23 15:49:15;;;;;;;7.40;5.60;;;20.40;42.10;;;;;;4976382;28;20454;-69
2021/04/23 15:51:41;;;;;;;9.07;6.90;;;20.40;40.90;;;;;;4976961;28;20867;-68
2021/04/23 15:54:08;;;;;;;7.93;5.60;;;20.40;41.30;;;;;;4976604;28;20454;-68
2021/04/23 15:56:34;;;;;;;7.67;4.80;;;20.10;43.10;;;;;;4976205;28;20454;-68
2021/04/23 15:59:01;;;;;;;6.17;5.60;;;20.10;42.70;;;;;;4976205;28;20529;-69
2021/04/23 16:01:27;;;;;;;7.93;5.40;;;20.10;42.40;;;;;;4975967;28;20483;-68
2021/04/23 16:03:53;;;;;;;8.10;5.10;;;20.00;43.50;;;;;;4975896;28;20849;-69
2021/04/23 16:06:20;;;;;;;9.43;5.10;;;19.90;43.10;;;;;;4976373;28;20457;-69
2021/04/23 16:08:46;;;;;;;6.90;5.33;;;19.80;41.30;;;;;;4975846;28;21008;-68
2021/04/23 16:11:14;;;;;;;5.27;4.53;;;19.70;41.80;;;;;;4975991;28;20485;-68
2021/04/23 16:13:40;;;;;;;9.97;6.13;;;19.60;42.80;;;;;;4975813;28;20464;-67
2021/04/23 16:16:07;;;;;;;5.47;4.90;;;19.60;42.00;;;;;;4975987;28;20458;-68
2021/04/23 16:18:33;;;;;;;6.03;4.63;;;19.70;42.00;;;;;;4975789;28;20462;-68
2021/04/23 16:20:59;;;;;;;8.37;5.53;;;19.80;42.20;;;;;;4975220;28;20815;-67
2021/04/23 16:23:26;;;;;;;6.87;5.77;;;19.40;42.50;;;;;;4975120;28;20455;-68
2021/04/23 16:25:52;;;;;;;5.90;5.03;;;19.20;42.60;;;;;;4975723;28;20535;-67
2021/04/23 16:28:19;;;;;;;6.80;5.17;;;19.30;42.90;;;;;;4975409;28;20462;-67
2021/04/23 16:30:46;;;;;;;5.57;4.83;;;19.30;42.80;;;;;;4975364;28;20475;-67
2021/04/23 16:33:12;;;;;;;7.90;5.20;;;19.30;43.00;;;;;;4975390;28;20451;-67
2021/04/23 16:35:38;;;;;;;6.17;5.20;;;18.90;42.20;;;;;;4975307;28;20454;-67
2021/04/23 16:38:05;;;;;;;6.23;4.80;;;18.80;42.70;;;;;;4975482;28;20465;-67
2021/04/23 16:40:32;;;;;;;7.53;4.90;;;18.50;43.50;;;;;;4975274;28;20459;-68
2021/04/23 16:43:00;;;;;;;7.83;7.00;;;18.30;42.90;;;;;;4975473;28;20459;-67
2021/04/23 16:45:30;;;;;;;5.93;4.60;;;18.20;42.80;;;;;;4975398;28;20519;-66
2021/04/23 16:47:56;;;;;;;6.90;4.80;;;18.30;44.20;;;;;;4975562;28;20501;-66
2021/04/23 16:50:23;;;;;;;9.40;5.37;;;18.40;44.30;;;;;;4975301;28;20469;-67
2021/04/23 16:52:49;;;;;;;5.37;4.60;;;18.30;42.70;;;;;;4976039;28;20937;-68